Time;durP1;ratioP1;P1;durP2;ratioP2;P2;SDS_P1;SDS_P2;PMS_P1;PMS_P2;Temp;Humidity;BMP_temperature;BMP_pressure;BME280_temperature;BME280_humidity;BME280_pressure;Samples;Min_cycle;Max_cycle;Signal;HPM_P1;HPM_P2
2023/04/24 00:00:56;;;;;;;4.13;3.83;;;12.60;99.90;;;;;;5003919;28;20224;-74
2023/04/24 00:03:23;;;;;;;4.00;3.70;;;12.50;99.90;;;;;;5001553;28;20224;-74
2023/04/24 00:05:50;;;;;;;3.90;3.60;;;12.50;99.90;;;;;;5001579;28;20207;-74
2023/04/24 00:08:18;;;;;;;4.35;3.38;;;12.50;99.90;;;;;;4994718;28;20299;-73
2023/04/24 00:10:45;;;;;;;3.70;3.40;;;12.50;99.90;;;;;;4994969;28;20293;-73
2023/04/24 00:13:12;;;;;;;4.00;3.70;;;12.60;99.90;;;;;;4996524;28;20232;-74
2023/04/24 00:15:40;;;;;;;4.38;3.97;;;12.50;99.90;;;;;;4996249;28;20204;-75
2023/04/24 00:18:07;;;;;;;4.07;3.78;;;12.50;99.90;;;;;;4999012;28;20287;-74
2023/04/24 00:20:35;;;;;;;3.92;3.58;;;12.50;99.90;;;;;;4999257;28;20336;-74
2023/04/24 00:23:02;;;;;;;4.47;4.07;;;12.50;99.90;;;;;;4998978;28;20220;-75
2023/04/24 00:25:30;;;;;;;6.05;5.10;;;12.50;99.90;;;;;;4998581;28;20232;-75
2023/04/24 00:27:57;;;;;;;4.47;4.07;;;12.50;99.90;;;;;;5002156;28;20299;-74
2023/04/24 00:30:24;;;;;;;4.93;4.10;;;12.40;99.90;;;;;;4995712;28;20199;-75
2023/04/24 00:32:53;;;;;;;4.35;3.97;;;12.40;99.90;;;;;;4999951;28;20783;-75
2023/04/24 00:35:20;;;;;;;4.15;3.85;;;12.40;99.90;;;;;;4998605;28;20200;-74
2023/04/24 00:37:47;;;;;;;3.95;3.65;;;12.40;99.90;;;;;;5000744;28;20200;-75
2023/04/24 00:40:15;;;;;;;4.40;4.10;;;12.50;99.90;;;;;;4999330;28;20941;-75
2023/04/24 00:42:42;;;;;;;4.50;4.18;;;12.50;99.90;;;;;;4997649;28;20248;-73
2023/04/24 00:45:09;;;;;;;4.50;4.15;;;12.50;99.90;;;;;;5003137;28;20283;-73
2023/04/24 00:47:38;;;;;;;4.00;3.60;;;12.50;99.90;;;;;;5000516;28;20747;-74
2023/04/24 00:50:08;;;;;;;4.20;3.85;;;12.50;99.90;;;;;;4984955;28;20240;-72
2023/04/24 00:52:36;;;;;;;4.20;3.90;;;12.50;99.90;;;;;;4996569;28;20255;-73
2023/04/24 00:55:05;;;;;;;6.13;5.63;;;12.40;99.90;;;;;;5002715;28;20228;-72
2023/04/24 00:57:32;;;;;;;4.88;4.38;;;12.30;99.90;;;;;;5001808;28;20204;-72
2023/04/24 00:59:59;;;;;;;4.28;3.88;;;12.10;99.90;;;;;;4982087;28;20240;-72
2023/04/24 01:02:27;;;;;;;3.80;3.50;;;12.10;99.90;;;;;;4968302;28;20216;-72
2023/04/24 01:04:54;;;;;;;4.57;4.18;;;12.20;99.90;;;;;;4994900;28;20930;-72
2023/04/24 01:07:25;;;;;;;4.00;3.70;;;12.30;99.90;;;;;;4999553;28;20205;-72
2023/04/24 01:09:52;;;;;;;3.63;3.40;;;12.30;99.90;;;;;;5000698;28;20593;-72
2023/04/24 01:12:20;;;;;;;3.83;3.33;;;12.30;99.90;;;;;;4995556;28;20283;-72
2023/04/24 01:14:47;;;;;;;3.28;3.08;;;12.30;99.90;;;;;;4999669;28;20290;-72
2023/04/24 01:17:15;;;;;;;3.20;2.90;;;12.30;99.90;;;;;;4980800;28;20201;-72
2023/04/24 01:19:44;;;;;;;3.08;2.83;;;12.40;99.90;;;;;;5001101;28;20773;-72
2023/04/24 01:22:16;;;;;;;3.17;2.97;;;12.40;99.90;;;;;;4999727;28;20220;-72
2023/04/24 01:24:43;;;;;;;2.30;2.20;;;12.40;99.90;;;;;;4998884;28;20788;-72
2023/04/24 01:27:11;;;;;;;2.85;2.65;;;12.50;99.90;;;;;;4999687;28;20200;-72
2023/04/24 01:29:38;;;;;;;2.88;2.67;;;12.50;99.90;;;;;;4999913;28;20287;-72
2023/04/24 01:32:07;;;;;;;2.78;2.58;;;12.50;99.90;;;;;;4983973;28;20262;-72
2023/04/24 01:34:34;;;;;;;2.80;2.60;;;12.50;99.90;;;;;;5001479;28;20287;-72
2023/04/24 01:37:02;;;;;;;3.03;2.83;;;12.50;99.90;;;;;;4983705;28;20300;-72
2023/04/24 01:39:30;;;;;;;2.67;2.47;;;12.50;99.90;;;;;;4968167;28;20291;-71
2023/04/24 01:41:57;;;;;;;2.90;2.70;;;12.50;99.90;;;;;;4999723;28;20292;-72
2023/04/24 01:44:25;;;;;;;2.55;2.42;;;12.50;99.90;;;;;;4998020;28;20286;-72
2023/04/24 01:46:53;;;;;;;2.67;2.47;;;12.40;99.90;;;;;;4999002;28;20243;-71
2023/04/24 01:49:20;;;;;;;2.78;2.58;;;12.40;99.90;;;;;;5000993;28;20204;-71
2023/04/24 01:51:48;;;;;;;3.00;2.80;;;12.40;99.90;;;;;;5010893;28;20213;-71
2023/04/24 01:54:15;;;;;;;3.25;3.05;;;12.40;99.90;;;;;;5020668;28;20200;-71
2023/04/24 01:56:44;;;;;;;3.17;2.95;;;12.40;99.90;;;;;;4998468;28;20291;-71
2023/04/24 01:59:12;;;;;;;3.33;3.13;;;12.30;99.90;;;;;;5000976;28;20291;-71
2023/04/24 02:01:40;;;;;;;3.00;2.80;;;12.30;99.90;;;;;;4993673;28;21006;-71
2023/04/24 02:04:08;;;;;;;3.35;3.05;;;12.30;99.90;;;;;;4992847;28;20629;-71
2023/04/24 02:06:35;;;;;;;3.05;2.85;;;12.30;99.90;;;;;;4998277;28;20216;-71
2023/04/24 02:09:03;;;;;;;3.42;3.13;;;12.30;99.90;;;;;;4996630;28;20309;-71
2023/04/24 02:11:31;;;;;;;2.92;2.70;;;12.30;99.90;;;;;;4997739;28;20198;-71
2023/04/24 02:13:59;;;;;;;3.10;2.90;;;12.30;99.90;;;;;;4999351;28;20252;-71
2023/04/24 02:16:26;;;;;;;3.13;2.92;;;12.30;99.90;;;;;;5002360;28;20283;-71
2023/04/24 02:18:53;;;;;;;3.97;3.67;;;12.30;99.90;;;;;;4998862;28;20200;-71
2023/04/24 02:21:21;;;;;;;3.53;3.33;;;12.30;99.90;;;;;;4980707;28;20580;-71
2023/04/24 02:23:48;;;;;;;4.07;3.78;;;12.30;99.90;;;;;;4980872;28;20220;-71
2023/04/24 02:26:15;;;;;;;3.50;3.20;;;12.30;99.90;;;;;;4980168;28;20826;-71
2023/04/24 02:28:42;;;;;;;3.88;3.58;;;12.30;99.90;;;;;;4994405;28;20351;-71
2023/04/24 02:31:11;;;;;;;4.03;3.72;;;12.30;99.90;;;;;;4998258;28;20787;-71
2023/04/24 02:33:38;;;;;;;3.30;3.10;;;12.30;99.90;;;;;;5000171;28;20311;-71
2023/04/24 02:36:05;;;;;;;3.10;2.90;;;12.20;99.90;;;;;;4994992;28;20286;-71
2023/04/24 02:38:32;;;;;;;3.10;2.90;;;12.20;99.90;;;;;;4980798;28;20393;-71
2023/04/24 02:41:00;;;;;;;3.15;2.85;;;12.20;99.90;;;;;;5001190;28;20721;-71
2023/04/24 02:43:27;;;;;;;2.70;2.55;;;12.30;99.90;;;;;;4996182;28;20262;-72
2023/04/24 02:45:54;;;;;;;2.55;2.35;;;12.30;99.90;;;;;;4982550;28;20287;-72
2023/04/24 02:48:23;;;;;;;2.72;2.60;;;12.30;99.90;;;;;;5000521;28;20601;-73
2023/04/24 02:50:51;;;;;;;2.92;2.65;;;12.30;99.90;;;;;;4993287;28;20303;-72
2023/04/24 02:53:18;;;;;;;2.83;2.63;;;12.30;99.90;;;;;;4998488;28;20253;-72
2023/04/24 02:55:45;;;;;;;2.60;2.40;;;12.40;99.90;;;;;;4995559;28;20562;-72
2023/04/24 02:58:13;;;;;;;2.70;2.60;;;12.40;99.90;;;;;;4984252;28;20567;-72
2023/04/24 03:00:40;;;;;;;3.30;3.10;;;12.40;99.90;;;;;;4995862;28;20234;-72
2023/04/24 03:03:08;;;;;;;2.50;2.40;;;12.30;99.90;;;;;;5001581;28;20591;-71
2023/04/24 03:05:36;;;;;;;2.60;2.50;;;12.30;99.90;;;;;;4996998;28;20239;-71
2023/04/24 03:08:03;;;;;;;2.65;2.45;;;12.30;99.90;;;;;;4999202;28;20287;-72
2023/04/24 03:10:30;;;;;;;2.92;2.72;;;12.30;99.90;;;;;;4995678;28;20225;-72
2023/04/24 03:12:57;;;;;;;2.70;2.50;;;12.30;99.90;;;;;;5002730;28;20256;-72
2023/04/24 03:15:24;;;;;;;2.70;2.50;;;12.30;99.90;;;;;;4984084;28;20311;-72
2023/04/24 03:17:52;;;;;;;2.60;2.40;;;12.30;99.90;;;;;;4999636;28;20212;-72
2023/04/24 03:20:19;;;;;;;2.50;2.40;;;12.30;99.90;;;;;;4980233;28;20225;-72
2023/04/24 03:22:47;;;;;;;3.13;2.85;;;12.30;99.90;;;;;;4995774;28;20349;-72
2023/04/24 03:25:15;;;;;;;2.55;2.35;;;12.30;99.90;;;;;;4984742;28;20197;-72
2023/04/24 03:27:42;;;;;;;2.90;2.70;;;12.30;99.90;;;;;;4999645;28;20238;-72
2023/04/24 03:30:10;;;;;;;2.42;2.25;;;12.30;99.90;;;;;;5000232;28;20232;-71
2023/04/24 03:32:39;;;;;;;2.90;2.70;;;12.30;99.90;;;;;;4988386;28;20706;-72
2023/04/24 03:35:07;;;;;;;2.50;2.40;;;12.30;99.90;;;;;;5014770;28;20212;-72
2023/04/24 03:37:34;;;;;;;2.72;2.53;;;12.30;99.90;;;;;;5013540;28;20281;-72
2023/04/24 03:40:03;;;;;;;3.00;2.80;;;12.30;99.90;;;;;;5013883;28;20287;-72
2023/04/24 03:42:30;;;;;;;2.83;2.63;;;12.30;99.90;;;;;;5001663;28;20248;-72
2023/04/24 03:44:57;;;;;;;3.20;2.90;;;12.30;99.90;;;;;;4980888;28;20197;-72
2023/04/24 03:47:24;;;;;;;3.63;3.33;;;12.20;99.90;;;;;;5003720;28;20287;-72
2023/04/24 03:49:52;;;;;;;4.00;3.17;;;12.20;99.90;;;;;;4998870;28;20205;-72
2023/04/24 03:52:19;;;;;;;3.28;2.97;;;12.10;99.90;;;;;;4987091;28;20786;-72
2023/04/24 03:54:46;;;;;;;3.47;3.28;;;11.90;99.90;;;;;;4998693;28;20298;-72
2023/04/24 03:57:16;;;;;;;3.25;3.05;;;11.80;99.90;;;;;;5004354;28;20227;-72
2023/04/24 03:59:43;;;;;;;3.25;3.03;;;11.70;99.90;;;;;;5004165;28;20275;-72
2023/04/24 04:02:10;;;;;;;128.85;8.07;;;11.70;99.90;;;;;;4981752;28;20235;-72
2023/04/24 04:04:37;;;;;;;420.00;16.95;;;11.60;99.90;;;;;;5005158;28;20195;-71
2023/04/24 04:07:05;;;;;;;275.10;14.48;;;11.60;99.90;;;;;;5003919;28;20231;-71
2023/04/24 04:09:32;;;;;;;5.35;4.95;;;11.50;99.90;;;;;;5004670;28;20226;-71
2023/04/24 04:12:00;;;;;;;2.47;2.30;;;11.40;99.90;;;;;;5005209;28;20894;-72
2023/04/24 04:14:28;;;;;;;1.45;1.38;;;10.90;99.90;;;;;;4982242;28;20698;-71
2023/04/24 04:16:55;;;;;;;1.50;1.40;;;10.60;99.90;;;;;;4998392;28;20287;-71
2023/04/24 04:19:22;;;;;;;3.10;1.50;;;10.30;99.90;;;;;;5000963;28;20212;-72
2023/04/24 04:21:53;;;;;;;1.30;1.30;;;10.10;99.90;;;;;;5001065;28;20299;-71
2023/04/24 04:24:22;;;;;;;1.70;1.50;;;10.00;99.90;;;;;;4999195;28;20200;-71
2023/04/24 04:26:51;;;;;;;1.20;1.10;;;9.90;99.90;;;;;;4984256;28;20291;-71
2023/04/24 04:29:19;;;;;;;1.77;1.27;;;9.80;99.90;;;;;;4998189;28;20722;-71
2023/04/24 04:31:47;;;;;;;1.20;1.20;;;9.60;99.90;;;;;;4986212;28;20197;-72
2023/04/24 04:34:15;;;;;;;1.10;1.10;;;9.60;99.90;;;;;;4999312;28;20251;-72
2023/04/24 04:36:44;;;;;;;1.20;1.17;;;9.40;99.90;;;;;;5001415;28;20694;-72
2023/04/24 04:39:10;;;;;;;1.45;1.13;;;9.20;99.90;;;;;;4986500;28;20661;-72
2023/04/24 04:41:40;;;;;;;1.38;1.30;;;9.10;99.90;;;;;;4998654;28;20316;-72
2023/04/24 04:44:08;;;;;;;2.58;1.38;;;9.00;99.90;;;;;;4997287;28;20208;-72
2023/04/24 04:46:37;;;;;;;1.70;1.60;;;9.00;99.90;;;;;;5001093;28;20219;-72
2023/04/24 04:49:05;;;;;;;1.65;1.55;;;9.00;99.90;;;;;;4996183;28;20301;-72
2023/04/24 04:51:32;;;;;;;1.73;1.63;;;9.00;99.90;;;;;;5002722;28;20255;-72
2023/04/24 04:53:59;;;;;;;1.60;1.50;;;9.00;99.90;;;;;;5002115;28;21326;-72
2023/04/24 04:56:27;;;;;;;3.13;1.80;;;9.00;99.90;;;;;;4996910;28;20247;-72
2023/04/24 04:58:54;;;;;;;1.55;1.45;;;9.00;99.90;;;;;;5003303;28;20227;-72
2023/04/24 05:01:22;;;;;;;1.33;1.33;;;9.00;99.90;;;;;;5001165;28;20243;-72
2023/04/24 05:03:51;;;;;;;1.40;1.40;;;9.00;99.90;;;;;;5000719;28;20848;-72
2023/04/24 05:06:19;;;;;;;1.67;1.58;;;9.00;99.90;;;;;;4997986;28;20287;-72
2023/04/24 05:08:46;;;;;;;1.35;1.35;;;8.90;99.90;;;;;;5002212;28;20209;-72
2023/04/24 05:11:13;;;;;;;1.58;1.50;;;8.90;99.90;;;;;;5000656;28;20283;-72
2023/04/24 05:13:40;;;;;;;2.17;1.60;;;8.90;99.90;;;;;;4995715;28;20364;-72
2023/04/24 05:16:08;;;;;;;1.27;1.25;;;8.90;99.90;;;;;;5000143;28;20209;-72
2023/04/24 05:18:35;;;;;;;2.15;1.80;;;8.90;99.90;;;;;;4969737;28;20204;-72
2023/04/24 05:21:02;;;;;;;1.75;1.65;;;8.90;99.90;;;;;;4998702;28;20660;-72
2023/04/24 05:23:31;;;;;;;1.60;1.50;;;8.80;99.90;;;;;;5002307;28;20363;-71
2023/04/24 05:25:58;;;;;;;1.20;1.20;;;8.80;99.90;;;;;;4984108;28;20212;-71
2023/04/24 05:28:28;;;;;;;2.17;1.67;;;8.90;99.90;;;;;;5002060;28;20204;-71
2023/04/24 05:30:55;;;;;;;1.70;1.60;;;9.00;99.90;;;;;;4998555;28;20208;-71
2023/04/24 05:33:23;;;;;;;1.55;1.55;;;9.10;99.90;;;;;;5001734;28;20225;-71
2023/04/24 05:35:50;;;;;;;1.40;1.30;;;9.20;99.90;;;;;;4999692;28;20662;-72
2023/04/24 05:38:19;;;;;;;1.10;1.10;;;9.30;99.90;;;;;;4998362;28;20286;-71
2023/04/24 05:40:47;;;;;;;1.40;1.30;;;9.40;99.90;;;;;;5002258;28;20697;-71
2023/04/24 05:43:14;;;;;;;1.00;1.00;;;9.40;99.90;;;;;;5002001;28;20311;-71
2023/04/24 05:45:42;;;;;;;1.35;1.35;;;9.40;99.90;;;;;;5000575;28;20832;-71
2023/04/24 05:48:09;;;;;;;1.20;1.20;;;9.50;99.90;;;;;;5000163;28;20208;-71
2023/04/24 05:50:36;;;;;;;1.05;1.05;;;9.60;99.90;;;;;;4993390;28;20983;-71
2023/04/24 05:53:03;;;;;;;1.40;1.40;;;9.60;99.90;;;;;;5001660;28;20315;-71
2023/04/24 05:55:31;;;;;;;1.20;1.20;;;9.70;99.90;;;;;;4996952;28;20223;-71
2023/04/24 05:58:00;;;;;;;1.30;1.30;;;9.70;99.90;;;;;;5000721;28;20316;-71
2023/04/24 06:00:28;;;;;;;1.30;1.30;;;9.80;99.90;;;;;;4998638;28;20223;-71
2023/04/24 06:02:55;;;;;;;1.50;1.40;;;9.80;99.90;;;;;;5000875;28;20224;-72
2023/04/24 06:05:22;;;;;;;1.00;1.00;;;9.80;99.90;;;;;;4991545;28;20747;-72
2023/04/24 06:07:50;;;;;;;1.23;1.23;;;9.90;99.90;;;;;;4979358;28;20303;-73
2023/04/24 06:10:17;;;;;;;1.40;1.30;;;9.90;99.90;;;;;;4993822;28;20200;-73
2023/04/24 06:12:44;;;;;;;1.35;1.35;;;10.00;99.90;;;;;;4976243;28;20302;-72
2023/04/24 06:15:13;;;;;;;1.00;1.00;;;10.00;99.90;;;;;;4992787;28;20239;-72
2023/04/24 06:17:42;;;;;;;1.10;1.00;;;10.00;99.90;;;;;;4996150;28;20204;-72
2023/04/24 06:20:10;;;;;;;1.00;1.00;;;10.00;99.90;;;;;;4979346;28;20207;-72
2023/04/24 06:22:39;;;;;;;1.10;1.10;;;10.00;99.90;;;;;;4993447;28;21985;-72
2023/04/24 06:25:07;;;;;;;1.20;1.20;;;10.00;99.90;;;;;;4999688;28;20200;-72
2023/04/24 06:27:35;;;;;;;1.10;1.10;;;10.10;99.90;;;;;;4998751;28;20295;-72
2023/04/24 06:30:03;;;;;;;1.00;1.00;;;10.10;99.90;;;;;;4992974;28;20219;-72
2023/04/24 06:32:32;;;;;;;1.35;1.35;;;10.10;99.90;;;;;;4996021;28;20220;-72
2023/04/24 06:34:59;;;;;;;1.58;1.48;;;10.00;99.90;;;;;;4998675;28;20291;-72
2023/04/24 06:37:27;;;;;;;1.40;1.40;;;10.00;99.90;;;;;;4996405;28;20294;-72
2023/04/24 06:39:54;;;;;;;1.55;1.45;;;10.00;99.90;;;;;;4995753;28;20203;-72
2023/04/24 06:42:21;;;;;;;1.92;1.30;;;10.00;99.90;;;;;;4995186;28;20809;-72
2023/04/24 06:44:49;;;;;;;1.08;1.08;;;10.00;99.90;;;;;;4994956;28;20294;-72
2023/04/24 06:47:16;;;;;;;2.67;1.83;;;10.00;99.90;;;;;;4995209;28;20228;-73
2023/04/24 06:49:44;;;;;;;1.30;1.30;;;9.80;99.90;;;;;;4975582;28;20200;-72
2023/04/24 06:52:11;;;;;;;1.45;1.45;;;9.80;99.90;;;;;;4997835;28;20243;-72
2023/04/24 06:54:38;;;;;;;1.98;1.88;;;9.80;99.90;;;;;;4995982;28;20291;-72
2023/04/24 06:57:06;;;;;;;2.00;1.90;;;9.80;99.90;;;;;;4994061;28;20283;-72
2023/04/24 06:59:33;;;;;;;2.20;2.10;;;9.90;99.90;;;;;;4981517;28;20643;-72
2023/04/24 07:02:00;;;;;;;2.40;2.30;;;9.90;99.90;;;;;;4993204;28;20299;-72
2023/04/24 07:04:27;;;;;;;2.42;2.33;;;9.90;99.90;;;;;;4996099;28;20201;-72
2023/04/24 07:06:57;;;;;;;2.40;2.30;;;9.90;99.90;;;;;;4991129;28;20278;-72
2023/04/24 07:09:26;;;;;;;2.10;2.00;;;10.00;99.90;;;;;;4994084;28;20287;-71
2023/04/24 07:11:56;;;;;;;2.00;1.90;;;10.20;99.90;;;;;;5001357;28;20200;-73
2023/04/24 07:14:23;;;;;;;2.00;1.90;;;10.20;99.90;;;;;;5004191;28;20200;-72
2023/04/24 07:16:50;;;;;;;1.58;1.58;;;10.20;99.90;;;;;;5002049;28;20295;-72
2023/04/24 07:19:18;;;;;;;1.50;1.50;;;10.30;99.90;;;;;;5005718;28;20203;-71
2023/04/24 07:21:45;;;;;;;1.40;1.40;;;10.30;99.90;;;;;;5009646;28;20270;-71
2023/04/24 07:24:13;;;;;;;1.23;1.23;;;10.40;99.90;;;;;;5009115;28;20200;-72
2023/04/24 07:26:40;;;;;;;1.25;1.25;;;10.60;99.90;;;;;;4998000;28;20289;-72
2023/04/24 07:29:08;;;;;;;1.17;1.17;;;10.70;99.90;;;;;;5001138;28;20288;-73
2023/04/24 07:31:35;;;;;;;1.30;1.30;;;10.80;99.90;;;;;;4995608;28;20890;-72
2023/04/24 07:34:02;;;;;;;1.25;1.25;;;10.90;99.90;;;;;;5003063;28;20303;-72
2023/04/24 07:36:29;;;;;;;1.38;1.27;;;10.90;99.90;;;;;;4995671;28;20601;-72
2023/04/24 07:38:57;;;;;;;1.60;1.50;;;11.00;99.90;;;;;;4978628;28;20667;-72
2023/04/24 07:41:27;;;;;;;1.30;1.30;;;11.00;99.90;;;;;;5003170;28;20601;-71
2023/04/24 07:43:54;;;;;;;1.23;1.23;;;10.90;99.90;;;;;;4998610;28;20232;-71
2023/04/24 07:46:23;;;;;;;1.40;1.40;;;10.80;99.90;;;;;;4997633;28;20200;-71
2023/04/24 07:48:50;;;;;;;1.30;1.30;;;10.60;99.90;;;;;;4994832;28;20204;-73
2023/04/24 07:51:17;;;;;;;1.20;1.20;;;10.60;99.90;;;;;;4999453;28;20228;-73
2023/04/24 07:53:45;;;;;;;1.25;1.25;;;10.50;99.90;;;;;;4981457;28;20262;-74
2023/04/24 07:56:12;;;;;;;1.25;1.25;;;10.50;99.90;;;;;;4993667;28;20263;-74
2023/04/24 07:58:41;;;;;;;1.00;1.00;;;10.50;99.90;;;;;;4994326;28;20280;-72
2023/04/24 08:01:08;;;;;;;1.30;1.30;;;10.50;99.90;;;;;;4999551;28;20200;-72
2023/04/24 08:03:35;;;;;;;1.30;1.30;;;10.50;99.90;;;;;;4996068;28;20330;-72
2023/04/24 08:06:02;;;;;;;1.40;1.30;;;10.50;99.90;;;;;;4984522;28;20720;-72
2023/04/24 08:08:30;;;;;;;1.30;1.27;;;10.60;99.90;;;;;;4998564;28;20286;-72
2023/04/24 08:10:57;;;;;;;1.58;1.38;;;10.60;99.90;;;;;;4996712;28;20228;-72
2023/04/24 08:13:24;;;;;;;1.63;1.50;;;10.50;99.90;;;;;;4997729;28;20718;-72
2023/04/24 08:15:53;;;;;;;1.50;1.40;;;10.60;99.90;;;;;;4999211;28;20904;-73
2023/04/24 08:18:20;;;;;;;2.05;1.50;;;10.60;99.90;;;;;;5001617;28;20291;-74
2023/04/24 08:20:47;;;;;;;1.90;1.80;;;10.70;99.90;;;;;;4996537;28;20283;-74
2023/04/24 08:23:14;;;;;;;1.80;1.70;;;10.70;99.90;;;;;;4996625;28;20665;-74
2023/04/24 08:25:42;;;;;;;2.13;1.92;;;10.70;99.90;;;;;;4999180;28;20244;-72
2023/04/24 08:28:10;;;;;;;2.10;1.80;;;10.70;99.90;;;;;;4998426;28;20236;-75
2023/04/24 08:30:38;;;;;;;2.45;2.25;;;10.80;99.90;;;;;;4996545;28;20287;-75
2023/04/24 08:33:07;;;;;;;2.25;2.03;;;10.90;99.90;;;;;;4996817;28;20225;-76
2023/04/24 08:35:34;;;;;;;2.70;2.20;;;10.90;99.90;;;;;;4995248;28;20852;-75
2023/04/24 08:38:01;;;;;;;2.20;2.08;;;11.00;99.90;;;;;;4995475;28;20879;-75
2023/04/24 08:40:30;;;;;;;1.85;1.75;;;11.00;99.90;;;;;;4976729;28;20243;-75
2023/04/24 08:42:57;;;;;;;2.00;1.90;;;11.00;99.90;;;;;;4994091;28;20221;-74
2023/04/24 08:45:25;;;;;;;2.20;2.10;;;11.10;99.90;;;;;;4993765;28;20813;-74
2023/04/24 08:47:54;;;;;;;1.80;1.70;;;11.10;99.90;;;;;;4978312;28;20262;-74
2023/04/24 08:50:23;;;;;;;1.95;1.58;;;11.20;99.90;;;;;;4997535;28;20201;-73
2023/04/24 08:52:53;;;;;;;2.47;1.60;;;11.20;99.90;;;;;;4997524;28;20567;-75
2023/04/24 08:55:21;;;;;;;1.40;1.40;;;11.10;99.90;;;;;;4980266;28;20208;-74
2023/04/24 08:57:53;;;;;;;1.20;1.20;;;11.00;99.90;;;;;;4980016;28;20702;-74
2023/04/24 09:00:21;;;;;;;2.13;1.92;;;10.90;99.90;;;;;;4996658;28;20937;-74
2023/04/24 09:02:50;;;;;;;1.60;1.50;;;10.90;99.90;;;;;;4981178;28;20228;-75
2023/04/24 09:05:18;;;;;;;1.77;1.67;;;10.90;99.90;;;;;;4999799;28;20286;-74
2023/04/24 09:07:52;;;;;;;2.03;1.73;;;10.90;99.90;;;;;;4994743;28;20204;-73
2023/04/24 09:10:19;;;;;;;2.00;1.90;;;10.90;99.90;;;;;;5003482;28;20299;-75
2023/04/24 09:12:47;;;;;;;1.52;1.42;;;10.90;99.90;;;;;;4995905;28;20727;-73
2023/04/24 09:15:15;;;;;;;1.42;1.35;;;10.90;99.90;;;;;;4995238;28;20997;-75
2023/04/24 09:17:42;;;;;;;1.70;1.60;;;11.00;99.90;;;;;;4994176;28;20700;-74
2023/04/24 09:20:10;;;;;;;1.40;1.40;;;11.10;99.90;;;;;;4993846;28;20327;-76
2023/04/24 09:22:37;;;;;;;1.38;1.38;;;11.20;99.90;;;;;;4993749;28;20256;-75
2023/04/24 09:25:08;;;;;;;1.50;1.40;;;11.30;99.90;;;;;;4963946;28;20721;-75
2023/04/24 09:27:36;;;;;;;1.35;1.25;;;11.30;99.90;;;;;;4996215;28;20211;-75
2023/04/24 09:30:04;;;;;;;1.70;1.60;;;11.50;99.90;;;;;;4995210;28;20232;-75
2023/04/24 09:32:31;;;;;;;1.40;1.30;;;11.70;99.90;;;;;;4995637;28;20251;-74
2023/04/24 09:35:10;;;;;;;1.67;1.58;;;11.80;99.90;;;;;;4997369;28;20813;-74
2023/04/24 09:37:38;;;;;;;1.52;1.50;;;12.00;99.90;;;;;;4998011;28;20244;-75
2023/04/24 09:40:13;;;;;;;1.60;1.48;;;11.90;99.90;;;;;;4990840;28;20201;-73
2023/04/24 09:42:40;;;;;;;2.30;2.10;;;11.90;99.90;;;;;;4992664;28;20255;-73
2023/04/24 09:45:11;;;;;;;1.40;1.30;;;12.00;99.90;;;;;;4995976;28;20284;-73
2023/04/24 09:47:38;;;;;;;1.38;1.35;;;12.00;99.90;;;;;;4994715;28;20209;-72
2023/04/24 09:50:16;;;;;;;1.17;1.17;;;12.10;99.90;;;;;;4996214;28;20251;-72
2023/04/24 09:52:44;;;;;;;1.10;1.10;;;12.20;99.90;;;;;;4975875;28;20808;-73
2023/04/24 09:55:18;;;;;;;1.42;1.40;;;12.30;99.90;;;;;;4996304;28;20318;-72
2023/04/24 09:57:52;;;;;;;1.30;1.30;;;12.40;99.90;;;;;;4980674;28;20216;-74
2023/04/24 10:00:22;;;;;;;1.30;1.30;;;12.50;99.90;;;;;;4990919;28;20203;-74
2023/04/24 10:02:55;;;;;;;1.67;1.58;;;12.60;99.90;;;;;;4997126;28;20243;-73
2023/04/24 10:05:25;;;;;;;1.27;1.20;;;12.70;99.90;;;;;;4997014;28;20246;-73
2023/04/24 10:07:57;;;;;;;1.13;1.13;;;12.80;99.90;;;;;;5000349;28;20192;-74
2023/04/24 10:10:26;;;;;;;1.20;1.20;;;13.00;99.90;;;;;;5009272;28;20226;-71
2023/04/24 10:12:54;;;;;;;1.25;1.05;;;13.30;99.90;;;;;;4993317;28;20280;-74
2023/04/24 10:15:22;;;;;;;1.30;1.20;;;13.50;99.90;;;;;;4977858;28;20673;-72
2023/04/24 10:17:52;;;;;;;1.17;1.17;;;13.80;99.90;;;;;;4978028;28;20216;-73
2023/04/24 10:20:24;;;;;;;1.30;1.30;;;14.00;99.90;;;;;;4992503;28;20196;-73
2023/04/24 10:22:53;;;;;;;1.30;1.30;;;14.10;99.90;;;;;;4993826;28;20228;-72
2023/04/24 10:25:22;;;;;;;1.55;1.45;;;14.20;99.90;;;;;;4997229;28;20724;-74
2023/04/24 10:27:52;;;;;;;1.08;1.08;;;14.40;99.90;;;;;;4994774;28;20316;-74
2023/04/24 10:30:20;;;;;;;1.40;1.30;;;14.50;99.90;;;;;;4993593;28;20233;-73
2023/04/24 10:32:47;;;;;;;1.52;1.42;;;14.60;99.90;;;;;;4993351;28;20436;-74
2023/04/24 10:35:16;;;;;;;1.30;1.30;;;14.70;99.90;;;;;;4997525;28;20807;-74
2023/04/24 10:37:47;;;;;;;1.27;1.20;;;14.80;99.90;;;;;;4992353;28;20205;-74
2023/04/24 10:40:20;;;;;;;1.20;1.10;;;14.90;99.90;;;;;;4992249;28;20254;-72
2023/04/24 10:42:52;;;;;;;1.45;1.35;;;15.00;99.90;;;;;;4996840;28;20471;-73
2023/04/24 10:45:21;;;;;;;1.85;1.20;;;15.30;99.90;;;;;;4988422;28;20717;-74
2023/04/24 10:47:57;;;;;;;1.02;1.02;;;15.30;99.90;;;;;;4993506;28;20513;-73
2023/04/24 10:50:26;;;;;;;1.13;1.13;;;15.50;99.90;;;;;;4992638;28;20203;-73
2023/04/24 10:52:54;;;;;;;1.30;1.20;;;15.40;99.90;;;;;;4993507;28;20757;-73
2023/04/24 10:55:46;;;;;;;1.40;1.30;;;15.20;99.90;;;;;;4976150;28;20204;-74
2023/04/24 10:58:16;;;;;;;1.42;1.25;;;14.90;99.90;;;;;;4997835;28;20286;-74
2023/04/24 11:00:44;;;;;;;1.38;1.27;;;14.90;99.90;;;;;;4994570;28;20233;-73
2023/04/24 11:03:25;;;;;;;1.35;1.25;;;15.00;99.90;;;;;;4978914;28;20220;-74
2023/04/24 11:05:56;;;;;;;1.50;1.40;;;15.00;99.90;;;;;;4997971;28;20574;-74
2023/04/24 11:08:27;;;;;;;0.93;0.90;;;15.00;99.90;;;;;;4981153;28;20258;-74
2023/04/24 11:11:02;;;;;;;1.13;1.10;;;15.20;99.90;;;;;;4997995;28;20203;-73
2023/04/24 11:14:07;;;;;;;1.60;1.50;;;15.20;99.90;;;;;;4990863;28;20690;-74
2023/04/24 11:16:37;;;;;;;3.35;1.15;;;15.20;99.90;;;;;;4993831;28;20287;-74
2023/04/24 11:19:07;;;;;;;1.25;1.25;;;15.20;99.90;;;;;;4979518;28;20196;-74
2023/04/24 11:21:44;;;;;;;1.30;1.20;;;15.10;99.90;;;;;;4994817;28;20829;-73
2023/04/24 11:24:32;;;;;;;1.40;1.33;;;15.10;99.90;;;;;;4997763;28;20219;-74
2023/04/24 11:27:05;;;;;;;1.90;1.20;;;15.20;99.90;;;;;;4989983;28;20299;-73
2023/04/24 11:29:48;;;;;;;1.40;1.10;;;15.40;99.90;;;;;;4992464;28;20232;-73
2023/04/24 11:32:28;;;;;;;1.42;1.33;;;15.50;99.90;;;;;;4993901;28;21173;-73
2023/04/24 11:34:57;;;;;;;1.30;1.30;;;15.70;99.90;;;;;;4992094;28;20282;-73
2023/04/24 11:37:26;;;;;;;1.88;1.30;;;15.70;99.90;;;;;;4992052;28;20283;-72
2023/04/24 11:39:55;;;;;;;2.67;1.52;;;16.00;99.90;;;;;;4992831;28;20441;-73
2023/04/24 11:42:23;;;;;;;1.50;1.40;;;16.30;99.90;;;;;;4993322;28;20247;-73
2023/04/24 11:44:53;;;;;;;1.52;1.42;;;16.70;99.90;;;;;;4996359;28;20728;-73
2023/04/24 11:47:21;;;;;;;2.15;1.48;;;17.00;99.90;;;;;;4979085;28;20702;-73
2023/04/24 11:49:51;;;;;;;1.98;1.35;;;17.20;99.90;;;;;;4991369;28;20204;-74
2023/04/24 11:52:18;;;;;;;1.02;1.00;;;17.30;99.90;;;;;;4993727;28;20311;-73
2023/04/24 11:54:50;;;;;;;1.40;1.30;;;17.50;99.90;;;;;;4998965;28;20207;-73
2023/04/24 11:57:17;;;;;;;1.20;1.00;;;17.70;99.90;;;;;;4993613;28;20496;-74
2023/04/24 11:59:44;;;;;;;1.23;1.08;;;17.80;99.90;;;;;;4998549;28;20207;-74
2023/04/24 12:02:23;;;;;;;1.40;1.20;;;17.80;99.90;;;;;;5001378;28;20319;-73
2023/04/24 12:04:50;;;;;;;1.08;1.08;;;17.70;99.90;;;;;;4977962;28;20220;-73
2023/04/24 12:07:18;;;;;;;0.98;0.98;;;17.80;99.90;;;;;;4996407;28;20214;-74
2023/04/24 12:09:46;;;;;;;1.27;0.95;;;17.90;99.90;;;;;;4997011;28;20302;-74
2023/04/24 12:12:14;;;;;;;1.90;1.10;;;17.90;99.90;;;;;;4998804;28;20757;-73
2023/04/24 12:14:53;;;;;;;1.08;1.02;;;18.10;99.90;;;;;;4994846;28;20242;-74
2023/04/24 12:17:26;;;;;;;2.65;1.10;;;18.30;99.90;;;;;;4983062;28;20200;-74
2023/04/24 12:19:53;;;;;;;1.25;1.15;;;18.40;99.90;;;;;;4995671;28;20335;-73
2023/04/24 12:22:20;;;;;;;0.73;0.73;;;18.30;99.90;;;;;;5000527;28;20314;-74
2023/04/24 12:24:58;;;;;;;0.90;0.90;;;18.20;99.90;;;;;;4982769;28;20264;-74
2023/04/24 12:27:27;;;;;;;0.95;0.95;;;18.20;99.90;;;;;;4998397;28;20239;-73
2023/04/24 12:29:57;;;;;;;0.90;0.90;;;18.10;99.90;;;;;;4992626;28;20478;-73
2023/04/24 12:32:26;;;;;;;1.08;1.08;;;18.10;99.90;;;;;;4998817;28;20307;-74
2023/04/24 12:34:55;;;;;;;1.95;1.05;;;17.90;99.90;;;;;;4999015;28;20227;-72
2023/04/24 12:37:24;;;;;;;0.90;0.90;;;17.90;99.90;;;;;;4980653;28;20494;-74
2023/04/24 12:40:07;;;;;;;0.90;0.90;;;17.90;99.90;;;;;;4994236;28;20295;-72
2023/04/24 12:42:34;;;;;;;0.80;0.80;;;17.90;99.90;;;;;;4998532;28;20231;-74
2023/04/24 12:45:04;;;;;;;0.88;0.88;;;17.80;99.90;;;;;;4994034;28;20220;-73
2023/04/24 12:47:34;;;;;;;1.10;0.95;;;17.80;99.90;;;;;;4992902;28;20216;-74
2023/04/24 12:50:02;;;;;;;0.70;0.70;;;17.80;99.90;;;;;;4997479;28;20235;-73
2023/04/24 12:52:31;;;;;;;0.88;0.88;;;18.10;99.90;;;;;;4996734;28;20419;-74
2023/04/24 12:55:00;;;;;;;1.10;1.10;;;18.60;99.90;;;;;;4996306;28;20821;-73